Decoded Metar for UWOO (ORENBURG in RUSSIA) (IATA:REN) | Meteo·Mobile Aviation Weather
aviador You're here:

UWOO Decoded Metar

ORENBURG in RUSSIA
Report Time2019-10-22 13:00:00
UTC Time2019-10-22 13:36:59
Flight Rules vfr VFR
Wind200° at 8 kt
W.Decomp.*RWY 26: 2.6 kt HW 7.6 kt LCW
Visibility9999 m
Phenomena:Light Rain
Clouds:Overcast 049 Hf
Expected CloudBase > 2,400 ft AGL from Temp-Dew spread
Ceiling4,900 ft
Temp09°C (ISA -5)
Dew Point03°C (66% RH)
AAT4.6°C
QNH1022 hPa
Density Alt-476 ft
Elevation358 ft
Report Wrong Elevation
Raw Report
METAR UWOO 221300Z 20004MPS 9999 -RA OVC049 09/03 Q1022 R26/60D NOSIG
RMK QFE756/1008=

Extra information for UWOO:More info

Metar Taf Metar & Taf Last 4 Metars F.Rules Stats Wind Profile Meteogram Temp Stats Airport Information Weather charts Add Link Nearby VenuesMetar ALERT Operation Metar Decoded Social comments